Time;durP1;ratioP1;P1;durP2;ratioP2;P2;SDS_P1;SDS_P2;PMS_P1;PMS_P2;Temp;Humidity;BMP_temperature;BMP_pressure;BME280_temperature;BME280_humidity;BME280_pressure;Samples;Min_cycle;Max_cycle;Signal;HPM_P1;HPM_P2
2024/04/16 00:00:35;;;;;;;63.15;29.63;;;10.00;99.90;;;;;;5490597;26;20366;-73
2024/04/16 00:03:01;;;;;;;58.85;30.55;;;9.90;99.90;;;;;;5472119;26;20017;-73
2024/04/16 00:05:27;;;;;;;53.28;28.50;;;9.90;99.90;;;;;;5483975;26;20401;-73
2024/04/16 00:07:53;;;;;;;54.08;27.48;;;9.90;99.90;;;;;;5464093;25;20022;-73
2024/04/16 00:10:19;;;;;;;54.97;28.10;;;9.80;99.90;;;;;;5488996;26;20006;-73
2024/04/16 00:12:46;;;;;;;60.42;29.02;;;9.80;99.90;;;;;;5473920;26;20003;-73
2024/04/16 00:15:12;;;;;;;54.75;27.17;;;9.80;99.90;;;;;;5473915;26;20017;-73
2024/04/16 00:17:38;;;;;;;58.47;29.65;;;9.70;99.90;;;;;;5471845;26;20019;-73
2024/04/16 00:20:05;;;;;;;58.72;28.75;;;9.70;99.90;;;;;;5481726;26;20080;-73
2024/04/16 00:22:31;;;;;;;53.00;27.58;;;9.70;99.90;;;;;;5480386;26;20034;-73
2024/04/16 00:24:56;;;;;;;60.65;30.08;;;9.70;99.90;;;;;;5479661;26;20006;-73
2024/04/16 00:27:22;;;;;;;60.42;27.65;;;9.70;99.90;;;;;;5481097;26;20014;-72
2024/04/16 00:29:48;;;;;;;52.45;28.05;;;9.60;99.90;;;;;;5490445;26;20014;-74
2024/04/16 00:32:13;;;;;;;58.03;28.65;;;9.60;99.90;;;;;;5466343;26;20006;-73
2024/04/16 00:34:39;;;;;;;55.53;27.60;;;9.60;99.90;;;;;;5490454;26;19998;-73
2024/04/16 00:37:04;;;;;;;61.28;31.13;;;9.50;99.90;;;;;;5466783;26;20427;-72
2024/04/16 00:39:30;;;;;;;65.03;33.05;;;9.50;99.90;;;;;;5467463;26;20455;-72
2024/04/16 00:41:56;;;;;;;67.05;32.80;;;9.50;99.90;;;;;;5490505;26;20017;-72
2024/04/16 00:44:23;;;;;;;56.47;27.63;;;9.60;99.90;;;;;;5478794;26;20021;-72
2024/04/16 00:46:50;;;;;;;57.95;28.35;;;9.50;99.90;;;;;;5490110;26;20013;-72
2024/04/16 00:49:16;;;;;;;52.90;28.00;;;9.50;99.90;;;;;;5475214;26;20013;-72
2024/04/16 00:51:42;;;;;;;60.15;28.55;;;9.50;99.90;;;;;;5490128;26;20006;-72
2024/04/16 00:54:09;;;;;;;56.03;28.33;;;9.50;99.90;;;;;;5487933;26;20013;-72
2024/04/16 00:56:35;;;;;;;54.40;27.80;;;9.40;99.90;;;;;;5481760;26;20034;-73
2024/04/16 00:59:02;;;;;;;52.08;25.10;;;9.50;99.90;;;;;;5489199;26;20797;-73
2024/04/16 01:01:28;;;;;;;50.38;25.55;;;9.40;99.90;;;;;;5487013;26;20341;-72
2024/04/16 01:03:56;;;;;;;49.22;26.13;;;9.40;99.90;;;;;;5456410;26;20024;-72
2024/04/16 01:06:23;;;;;;;48.95;24.45;;;9.40;99.90;;;;;;5482869;26;20335;-72
2024/04/16 01:08:49;;;;;;;49.58;24.80;;;9.40;99.90;;;;;;5475246;26;20006;-72
2024/04/16 01:11:25;;;;;;;53.70;24.83;;;9.40;99.90;;;;;;5480624;26;20082;-72
2024/04/16 01:13:51;;;;;;;47.13;23.75;;;9.40;99.90;;;;;;5479433;26;20017;-72
2024/04/16 01:16:17;;;;;;;44.28;23.75;;;9.50;99.90;;;;;;5464164;26;20032;-73
2024/04/16 01:18:43;;;;;;;48.97;22.70;;;9.50;99.90;;;;;;5456854;26;20015;-72
2024/04/16 01:21:08;;;;;;;33.30;19.13;;;9.40;99.90;;;;;;5481204;26;20014;-72
2024/04/16 01:23:34;;;;;;;37.00;19.55;;;9.50;99.90;;;;;;5486653;26;20451;-73
2024/04/16 01:25:59;;;;;;;35.20;19.05;;;9.40;99.90;;;;;;5482709;26;20401;-72
2024/04/16 01:28:25;;;;;;;31.70;16.50;;;9.40;99.90;;;;;;5490123;26;20070;-73
2024/04/16 01:30:51;;;;;;;34.22;16.73;;;9.40;99.90;;;;;;5488213;26;20001;-72
2024/04/16 01:33:16;;;;;;;29.55;15.48;;;9.50;99.90;;;;;;5487594;26;20002;-72
2024/04/16 01:35:42;;;;;;;29.20;14.68;;;9.40;99.90;;;;;;5483104;26;20088;-72
2024/04/16 01:38:07;;;;;;;28.70;14.75;;;9.40;99.90;;;;;;5472349;26;20381;-72
2024/04/16 01:40:33;;;;;;;22.65;13.50;;;9.40;99.90;;;;;;5470611;26;19995;-72
2024/04/16 01:42:59;;;;;;;25.63;14.13;;;9.40;99.90;;;;;;5454097;26;20013;-73
2024/04/16 01:45:24;;;;;;;23.05;13.10;;;9.40;99.90;;;;;;5460566;26;20082;-73
2024/04/16 01:47:50;;;;;;;20.85;12.30;;;9.40;99.90;;;;;;5475006;26;20007;-71
2024/04/16 01:50:15;;;;;;;20.00;11.95;;;9.40;99.90;;;;;;5463947;26;20769;-72
2024/04/16 01:52:41;;;;;;;21.50;11.90;;;9.40;99.90;;;;;;5489393;26;20034;-72
2024/04/16 01:55:07;;;;;;;17.25;10.55;;;9.30;99.90;;;;;;5471377;26;20043;-72
2024/04/16 01:57:33;;;;;;;22.45;10.70;;;9.30;99.90;;;;;;5472135;26;20010;-72
2024/04/16 01:59:59;;;;;;;17.73;10.82;;;9.30;99.90;;;;;;5488034;26;20032;-73
2024/04/16 02:02:25;;;;;;;17.02;9.95;;;9.30;99.90;;;;;;5472221;26;20067;-72
2024/04/16 02:04:51;;;;;;;20.58;9.77;;;9.30;99.90;;;;;;5487195;26;20427;-72
2024/04/16 02:07:17;;;;;;;13.90;8.50;;;9.30;99.90;;;;;;5478475;26;20081;-72
2024/04/16 02:09:42;;;;;;;17.38;9.65;;;9.30;99.90;;;;;;5475975;26;20009;-72
2024/04/16 02:12:08;;;;;;;14.80;9.18;;;9.30;99.90;;;;;;5485674;26;19998;-72
2024/04/16 02:14:34;;;;;;;17.88;9.68;;;9.30;99.90;;;;;;5465906;26;20006;-73
2024/04/16 02:16:59;;;;;;;11.73;8.07;;;9.30;99.90;;;;;;5475005;26;20040;-72
2024/04/16 02:19:25;;;;;;;13.60;8.63;;;9.30;99.90;;;;;;5489112;26;20012;-73
2024/04/16 02:21:51;;;;;;;15.63;8.63;;;9.30;99.90;;;;;;5488748;26;20010;-72
2024/04/16 02:24:16;;;;;;;12.90;7.47;;;9.30;99.90;;;;;;5488441;26;20034;-72
2024/04/16 02:26:42;;;;;;;13.25;7.22;;;9.30;99.90;;;;;;5486807;26;20013;-73
2024/04/16 02:29:08;;;;;;;10.80;6.65;;;9.30;99.90;;;;;;5464033;26;20074;-73
2024/04/16 02:31:36;;;;;;;10.10;7.68;;;9.40;99.90;;;;;;5488380;26;20074;-72
2024/04/16 02:34:01;;;;;;;9.80;6.75;;;9.40;99.90;;;;;;5488722;26;20010;-73
2024/04/16 02:36:27;;;;;;;8.68;6.60;;;9.40;99.90;;;;;;5482604;26;20006;-72
2024/04/16 02:38:53;;;;;;;11.40;6.28;;;9.50;99.90;;;;;;5486884;26;20009;-72
2024/04/16 02:41:18;;;;;;;9.98;6.32;;;9.50;99.90;;;;;;5488568;26;20006;-72
2024/04/16 02:43:44;;;;;;;11.77;7.82;;;9.50;99.90;;;;;;5454462;26;19995;-72
2024/04/16 02:46:10;;;;;;;14.55;8.70;;;9.50;99.90;;;;;;5489071;26;20002;-73
2024/04/16 02:48:35;;;;;;;19.30;10.23;;;9.50;99.90;;;;;;5478467;26;19998;-72
2024/04/16 02:51:01;;;;;;;10.77;7.15;;;9.50;99.90;;;;;;5473035;26;20360;-72
2024/04/16 02:53:27;;;;;;;13.18;7.38;;;9.50;99.90;;;;;;5487793;26;20007;-72
2024/04/16 02:55:52;;;;;;;14.35;7.95;;;9.50;99.90;;;;;;5478676;26;20006;-72
2024/04/16 02:58:18;;;;;;;14.57;7.30;;;9.50;99.90;;;;;;5488090;26;20013;-72
2024/04/16 03:00:44;;;;;;;14.23;8.23;;;9.50;99.90;;;;;;5487733;26;20021;-72
2024/04/16 03:03:12;;;;;;;14.82;7.43;;;9.50;99.90;;;;;;5487608;26;20021;-73
2024/04/16 03:05:38;;;;;;;13.55;8.05;;;9.50;99.90;;;;;;5487636;26;20034;-73
2024/04/16 03:08:04;;;;;;;14.18;7.88;;;9.50;99.90;;;;;;5487587;26;20006;-73
2024/04/16 03:10:30;;;;;;;15.15;7.32;;;9.50;99.90;;;;;;5487876;26;20439;-73
2024/04/16 03:12:55;;;;;;;11.30;6.95;;;9.50;99.90;;;;;;5487199;26;20013;-72
2024/04/16 03:15:21;;;;;;;11.38;7.00;;;9.50;99.90;;;;;;5487864;26;20017;-72
2024/04/16 03:17:46;;;;;;;13.60;7.13;;;9.50;99.90;;;;;;5484892;26;20002;-72
2024/04/16 03:20:12;;;;;;;11.35;6.72;;;9.50;99.90;;;;;;5487837;26;20079;-72
2024/04/16 03:22:38;;;;;;;10.35;6.78;;;9.50;99.90;;;;;;5486942;26;20002;-73
2024/04/16 03:25:04;;;;;;;19.92;8.02;;;9.40;99.90;;;;;;5488046;26;20002;-73
2024/04/16 03:27:30;;;;;;;13.73;7.88;;;9.40;99.90;;;;;;5486415;26;20007;-73
2024/04/16 03:29:55;;;;;;;14.85;7.03;;;9.40;99.90;;;;;;5455421;26;20040;-72
2024/04/16 03:32:21;;;;;;;12.73;7.05;;;9.40;99.90;;;;;;5455222;26;20014;-72
2024/04/16 03:34:47;;;;;;;10.85;6.20;;;9.40;99.90;;;;;;5455066;26;20018;-72
2024/04/16 03:37:12;;;;;;;11.88;5.72;;;9.30;99.90;;;;;;5487199;26;20377;-73
2024/04/16 03:39:38;;;;;;;4.38;3.95;;;9.30;99.90;;;;;;5487251;26;20010;-72
2024/04/16 03:42:04;;;;;;;6.97;5.25;;;9.40;99.90;;;;;;5487065;26;20006;-72
2024/04/16 03:44:29;;;;;;;6.72;4.88;;;9.30;99.90;;;;;;5454736;26;20050;-72
2024/04/16 03:46:56;;;;;;;5.88;4.40;;;9.30;99.90;;;;;;5486923;26;20008;-72
2024/04/16 03:49:22;;;;;;;7.30;3.47;;;9.30;99.90;;;;;;5453807;26;20455;-73
2024/04/16 03:51:47;;;;;;;5.70;2.50;;;9.20;99.90;;;;;;5469575;26;20068;-72
2024/04/16 03:54:13;;;;;;;3.03;2.33;;;9.30;99.90;;;;;;5487164;26;20002;-72
2024/04/16 03:56:39;;;;;;;7.32;3.10;;;9.20;99.90;;;;;;5488715;26;20451;-72
2024/04/16 03:59:16;;;;;;;6.00;3.08;;;9.20;99.90;;;;;;5490677;26;20018;-72
2024/04/16 04:01:44;;;;;;;2.97;2.45;;;9.00;99.90;;;;;;5490588;26;20059;-72
2024/04/16 04:04:11;;;;;;;4.93;2.63;;;8.90;99.90;;;;;;5491227;26;20466;-72
2024/04/16 04:06:37;;;;;;;4.32;2.90;;;8.70;99.90;;;;;;5458018;26;20439;-73
2024/04/16 04:09:03;;;;;;;4.22;2.40;;;8.60;99.90;;;;;;5490724;26;20071;-72
2024/04/16 04:11:29;;;;;;;5.03;2.45;;;8.50;99.90;;;;;;5489309;26;20086;-73
2024/04/16 04:13:54;;;;;;;6.38;1.60;;;8.40;99.90;;;;;;5489967;26;20010;-72
2024/04/16 04:16:20;;;;;;;3.08;1.77;;;8.30;99.90;;;;;;5491081;26;20435;-73
2024/04/16 04:18:45;;;;;;;1.70;1.50;;;8.20;99.90;;;;;;5488059;26;20002;-73
2024/04/16 04:21:11;;;;;;;4.22;2.22;;;8.20;99.90;;;;;;5489011;26;20043;-73
2024/04/16 04:23:37;;;;;;;4.32;1.98;;;8.10;99.90;;;;;;5478595;26;20003;-72
2024/04/16 04:26:03;;;;;;;2.33;1.80;;;8.00;99.90;;;;;;5489562;26;20051;-72
2024/04/16 04:28:28;;;;;;;6.38;1.73;;;8.00;99.90;;;;;;5476648;26;20448;-72
2024/04/16 04:30:54;;;;;;;5.63;1.60;;;7.90;99.90;;;;;;5489523;26;20008;-72
2024/04/16 04:33:20;;;;;;;4.13;1.60;;;7.80;99.90;;;;;;5473771;26;19999;-71
2024/04/16 04:35:46;;;;;;;3.83;1.02;;;7.70;99.90;;;;;;5452085;26;20002;-72
2024/04/16 04:38:11;;;;;;;2.35;1.20;;;7.80;99.90;;;;;;5489998;26;20330;-73
2024/04/16 04:40:37;;;;;;;1.92;0.93;;;7.70;99.90;;;;;;5489957;26;20010;-73
2024/04/16 04:43:03;;;;;;;1.15;1.00;;;7.60;99.90;;;;;;5488280;26;20013;-72
2024/04/16 04:45:28;;;;;;;2.55;1.10;;;7.60;99.90;;;;;;5453703;26;20039;-73
2024/04/16 04:47:54;;;;;;;2.53;1.02;;;7.50;99.90;;;;;;5475988;26;19998;-72
2024/04/16 04:50:20;;;;;;;3.50;1.20;;;7.40;99.90;;;;;;5465771;26;20010;-72
2024/04/16 04:52:45;;;;;;;1.35;1.10;;;7.50;99.90;;;;;;5490192;26;20005;-73
2024/04/16 04:55:11;;;;;;;1.77;1.05;;;7.50;99.90;;;;;;5488592;26;19998;-72
2024/04/16 04:57:37;;;;;;;1.77;0.85;;;7.40;99.90;;;;;;5489608;26;20014;-72
2024/04/16 05:00:03;;;;;;;2.80;1.00;;;7.50;99.90;;;;;;5485116;26;20009;-72
2024/04/16 05:02:29;;;;;;;1.13;1.00;;;7.30;97.70;;;;;;5475619;26;20022;-73
2024/04/16 05:04:55;;;;;;;1.42;1.15;;;7.30;97.00;;;;;;5481388;26;20006;-72
2024/04/16 05:07:20;;;;;;;3.72;0.93;;;7.30;96.80;;;;;;5481327;26;20381;-72
2024/04/16 05:09:48;;;;;;;1.95;1.77;;;7.20;96.80;;;;;;5487406;26;20017;-70
2024/04/16 05:12:14;;;;;;;1.35;0.70;;;7.20;94.20;;;;;;5489408;26;20471;-72
2024/04/16 05:14:39;;;;;;;2.58;0.80;;;7.20;95.70;;;;;;5485238;26;20017;-71
2024/04/16 05:17:05;;;;;;;2.05;1.05;;;7.10;94.90;;;;;;5482389;26;20010;-72
2024/04/16 05:19:31;;;;;;;1.15;0.90;;;7.20;95.10;;;;;;5478510;26;19994;-72
2024/04/16 05:21:56;;;;;;;1.75;1.10;;;7.10;95.50;;;;;;5475354;26;19995;-72
2024/04/16 05:24:22;;;;;;;2.45;0.98;;;7.10;95.00;;;;;;5478080;26;20408;-73
2024/04/16 05:26:47;;;;;;;0.90;0.70;;;7.00;90.60;;;;;;5473763;26;20046;-71
2024/04/16 05:29:13;;;;;;;0.75;0.75;;;6.90;89.60;;;;;;5482773;26;20078;-71
2024/04/16 05:31:39;;;;;;;14.65;1.08;;;6.90;90.80;;;;;;5482083;26;20070;-71
2024/04/16 05:34:04;;;;;;;2.05;0.90;;;6.70;87.20;;;;;;5475578;26;20351;-70
2024/04/16 05:36:30;;;;;;;4.15;0.90;;;6.70;87.40;;;;;;5480147;26;20439;-69
2024/04/16 05:38:55;;;;;;;1.27;0.70;;;6.60;87.10;;;;;;5472967;26;20075;-70
2024/04/16 05:41:21;;;;;;;0.73;0.73;;;6.60;88.50;;;;;;5477963;26;20010;-70
2024/04/16 05:43:47;;;;;;;1.92;0.80;;;6.50;87.20;;;;;;5470840;26;20505;-70
2024/04/16 05:46:13;;;;;;;1.90;1.00;;;6.60;87.50;;;;;;5463552;26;19994;-71
2024/04/16 05:48:39;;;;;;;1.20;1.00;;;6.50;86.80;;;;;;5457236;26;20003;-70
2024/04/16 05:51:05;;;;;;;0.82;0.70;;;6.50;86.90;;;;;;5487666;26;20010;-71
2024/04/16 05:53:30;;;;;;;1.45;0.70;;;6.50;87.20;;;;;;5457175;26;20003;-68
2024/04/16 05:55:56;;;;;;;1.38;0.90;;;6.50;83.10;;;;;;5467275;26;20014;-70
2024/04/16 05:58:24;;;;;;;1.40;0.80;;;6.50;81.40;;;;;;5476303;26;20006;-71
2024/04/16 06:00:49;;;;;;;0.98;0.82;;;6.60;79.70;;;;;;5451633;26;19998;-71
2024/04/16 06:03:16;;;;;;;4.70;1.10;;;6.60;77.40;;;;;;5455924;26;20388;-71
2024/04/16 06:05:42;;;;;;;1.98;0.82;;;6.70;75.40;;;;;;5471572;26;20012;-70
2024/04/16 06:08:08;;;;;;;4.85;0.98;;;6.80;75.60;;;;;;5459648;26;20003;-70
2024/04/16 06:10:33;;;;;;;3.80;1.25;;;6.80;75.70;;;;;;5469577;26;20072;-71
2024/04/16 06:12:59;;;;;;;1.80;0.93;;;6.70;75.60;;;;;;5466097;26;20010;-71
2024/04/16 06:15:25;;;;;;;2.45;1.20;;;6.60;74.70;;;;;;5484898;26;20014;-71
2024/04/16 06:17:50;;;;;;;2.53;1.05;;;6.40;74.80;;;;;;5485960;26;20006;-70
2024/04/16 06:20:16;;;;;;;1.98;1.08;;;6.50;75.60;;;;;;5487497;26;20006;-70
2024/04/16 06:22:42;;;;;;;3.50;1.00;;;6.40;77.00;;;;;;5483213;26;20008;-71
2024/04/16 06:25:07;;;;;;;1.40;1.00;;;6.30;77.10;;;;;;5488945;26;20327;-70
2024/04/16 06:27:33;;;;;;;5.28;1.20;;;6.30;77.90;;;;;;5485235;26;20335;-71
2024/04/16 06:29:59;;;;;;;3.95;1.23;;;6.20;77.90;;;;;;5489051;26;20006;-71
2024/04/16 06:32:25;;;;;;;1.15;1.15;;;6.10;78.60;;;;;;5480877;26;20006;-71
2024/04/16 06:34:50;;;;;;;7.03;2.03;;;6.10;78.90;;;;;;5488691;26;20435;-71
2024/04/16 06:37:16;;;;;;;1.60;1.30;;;6.00;77.20;;;;;;5485256;26;20331;-71
2024/04/16 06:39:42;;;;;;;1.13;1.10;;;6.00;79.10;;;;;;5488260;26;19994;-71
2024/04/16 06:42:07;;;;;;;1.30;1.00;;;6.10;80.50;;;;;;5488284;26;19998;-71
2024/04/16 06:44:33;;;;;;;1.15;1.00;;;6.20;80.30;;;;;;5487172;26;20001;-71
2024/04/16 06:46:58;;;;;;;1.60;1.50;;;6.50;79.50;;;;;;5487916;26;20098;-70
2024/04/16 06:49:24;;;;;;;1.60;1.20;;;6.70;78.70;;;;;;5468033;26;20443;-71
2024/04/16 06:51:50;;;;;;;1.40;1.00;;;6.80;77.70;;;;;;5481944;26;20002;-70
2024/04/16 06:54:15;;;;;;;2.20;0.98;;;6.90;78.30;;;;;;5488184;26;19999;-70
2024/04/16 06:56:41;;;;;;;1.30;1.30;;;6.80;75.90;;;;;;5488043;26;20483;-71
2024/04/16 06:59:07;;;;;;;1.38;1.27;;;6.80;75.00;;;;;;5488251;26;20013;-71
2024/04/16 07:01:33;;;;;;;2.50;1.33;;;6.80;76.60;;;;;;5487324;26;20028;-71
2024/04/16 07:03:59;;;;;;;2.83;1.45;;;6.70;77.10;;;;;;5488288;26;19994;-70
2024/04/16 07:06:26;;;;;;;2.70;1.27;;;6.60;76.80;;;;;;5487869;26;20006;-71
2024/04/16 07:08:51;;;;;;;2.28;1.65;;;6.60;75.70;;;;;;5488113;26;20047;-70
2024/04/16 07:11:17;;;;;;;4.05;1.40;;;6.60;75.90;;;;;;5485530;26;20002;-71
2024/04/16 07:13:45;;;;;;;2.80;1.25;;;6.70;76.60;;;;;;5488107;26;19994;-71
2024/04/16 07:16:11;;;;;;;1.33;1.20;;;6.80;77.10;;;;;;5488086;26;19998;-70
2024/04/16 07:18:36;;;;;;;1.20;1.20;;;7.00;78.30;;;;;;5487616;26;20324;-71
2024/04/16 07:21:02;;;;;;;3.47;1.23;;;7.10;76.50;;;;;;5485527;26;20082;-71
2024/04/16 07:23:28;;;;;;;7.03;1.25;;;7.20;76.60;;;;;;5487799;26;20002;-70
2024/04/16 07:25:53;;;;;;;3.75;1.20;;;7.20;76.20;;;;;;5487255;26;20049;-71
2024/04/16 07:28:19;;;;;;;2.05;1.52;;;7.60;77.50;;;;;;5487938;26;20443;-71
2024/04/16 07:30:45;;;;;;;1.23;1.15;;;7.90;75.90;;;;;;5488039;26;20013;-71
2024/04/16 07:33:11;;;;;;;1.70;1.30;;;8.00;73.40;;;;;;5491209;26;19999;-71
2024/04/16 07:35:37;;;;;;;5.13;1.65;;;8.10;72.60;;;;;;5477722;26;20418;-70
2024/04/16 07:38:02;;;;;;;3.42;1.52;;;8.20;71.70;;;;;;5473160;26;20078;-71
2024/04/16 07:40:28;;;;;;;2.05;1.50;;;8.50;73.20;;;;;;5490524;26;20010;-71
2024/04/16 07:42:54;;;;;;;2.38;1.48;;;8.40;72.30;;;;;;5491249;26;20447;-71
2024/04/16 07:45:19;;;;;;;2.35;1.40;;;8.30;71.00;;;;;;5488407;26;20007;-71
2024/04/16 07:47:45;;;;;;;1.98;1.23;;;8.10;71.00;;;;;;5491239;26;20021;-71
2024/04/16 07:50:11;;;;;;;7.40;2.13;;;8.10;71.50;;;;;;5466537;26;20034;-71
2024/04/16 07:52:36;;;;;;;1.50;1.40;;;8.10;73.50;;;;;;5490720;26;19998;-71
2024/04/16 07:55:02;;;;;;;1.80;1.63;;;8.00;73.20;;;;;;5482803;26;20009;-71
2024/04/16 07:57:28;;;;;;;2.20;1.50;;;7.90;73.40;;;;;;5475665;25;20050;-70
2024/04/16 07:59:53;;;;;;;6.72;1.90;;;7.80;72.90;;;;;;5487024;26;19998;-71
2024/04/16 08:02:19;;;;;;;4.95;1.60;;;7.80;73.70;;;;;;5490326;26;20002;-71
2024/04/16 08:04:44;;;;;;;3.22;1.38;;;7.60;72.90;;;;;;5490215;26;19994;-70
2024/04/16 08:07:10;;;;;;;2.85;1.30;;;7.70;73.30;;;;;;5491330;26;20338;-70
2024/04/16 08:09:37;;;;;;;2.45;1.60;;;7.70;73.70;;;;;;5490555;26;20022;-71
2024/04/16 08:12:02;;;;;;;2.25;1.55;;;7.80;72.80;;;;;;5490733;26;20010;-70
2024/04/16 08:14:28;;;;;;;1.45;1.35;;;7.80;73.50;;;;;;5490066;26;20021;-71
2024/04/16 08:16:54;;;;;;;3.10;1.35;;;8.00;75.00;;;;;;5471890;26;20003;-71
2024/04/16 08:19:19;;;;;;;3.45;1.42;;;7.90;73.90;;;;;;5486165;26;20339;-71
2024/04/16 08:21:46;;;;;;;2.20;1.40;;;8.00;74.10;;;;;;5489272;26;20006;-71
2024/04/16 08:24:13;;;;;;;1.75;1.40;;;8.00;73.10;;;;;;5459969;26;20462;-71
2024/04/16 08:26:38;;;;;;;1.52;1.35;;;7.90;72.60;;;;;;5474559;26;20071;-71
2024/04/16 08:29:04;;;;;;;1.45;1.35;;;7.60;69.00;;;;;;5482672;26;20015;-70
2024/04/16 08:31:30;;;;;;;1.77;1.23;;;7.60;69.40;;;;;;5472153;26;20423;-71
2024/04/16 08:33:55;;;;;;;3.47;1.77;;;7.70;69.60;;;;;;5485862;26;19994;-71
2024/04/16 08:36:21;;;;;;;3.38;1.55;;;7.70;70.30;;;;;;5490074;26;20017;-71
2024/04/16 08:38:46;;;;;;;2.25;1.55;;;7.70;70.90;;;;;;5466341;26;20017;-71
2024/04/16 08:41:12;;;;;;;1.67;1.58;;;7.60;70.70;;;;;;5489973;26;20078;-71
2024/04/16 08:43:40;;;;;;;2.58;1.60;;;7.70;70.70;;;;;;5489275;26;19998;-71
2024/04/16 08:46:08;;;;;;;1.42;1.33;;;7.80;70.90;;;;;;5479743;26;20006;-71
2024/04/16 08:48:39;;;;;;;1.55;1.45;;;7.70;69.90;;;;;;5477904;26;20067;-71
2024/04/16 08:51:06;;;;;;;2.95;1.30;;;7.90;69.40;;;;;;5475151;26;20073;-71
2024/04/16 08:53:33;;;;;;;1.52;1.42;;;7.80;68.60;;;;;;5489145;26;20029;-71
2024/04/16 08:55:59;;;;;;;2.28;1.27;;;7.70;67.80;;;;;;5489917;26;20006;-71
2024/04/16 08:58:25;;;;;;;1.50;1.40;;;7.80;67.40;;;;;;5481463;26;20043;-71
2024/04/16 09:00:52;;;;;;;2.60;1.33;;;7.80;67.50;;;;;;5454256;26;20300;-70
2024/04/16 09:03:18;;;;;;;2.05;1.40;;;7.70;67.20;;;;;;5487746;26;20002;-70
2024/04/16 09:05:46;;;;;;;1.45;1.35;;;7.60;66.20;;;;;;5489975;26;20006;-71
2024/04/16 09:08:12;;;;;;;2.55;1.40;;;7.70;67.20;;;;;;5456746;26;20079;-71
2024/04/16 09:10:39;;;;;;;5.53;1.50;;;7.50;65.40;;;;;;5454603;26;20459;-71
2024/04/16 09:13:12;;;;;;;3.05;1.42;;;7.70;66.40;;;;;;5483249;26;20030;-70
2024/04/16 09:15:39;;;;;;;2.45;1.40;;;7.80;67.60;;;;;;5479219;26;20006;-71
2024/04/16 09:18:05;;;;;;;2.08;1.40;;;7.90;68.20;;;;;;5466961;26;20010;-70
2024/04/16 09:20:31;;;;;;;2.10;1.60;;;8.10;68.00;;;;;;5465991;26;20007;-70
2024/04/16 09:22:56;;;;;;;1.50;1.40;;;8.40;68.00;;;;;;5489697;26;20016;-71
2024/04/16 09:25:24;;;;;;;3.95;1.70;;;8.30;65.60;;;;;;5489199;26;19994;-70
2024/04/16 09:27:51;;;;;;;1.88;1.20;;;8.60;66.90;;;;;;5464929;26;20017;-71
2024/04/16 09:30:17;;;;;;;1.70;1.60;;;8.50;64.00;;;;;;5488147;26;20018;-72
2024/04/16 09:32:47;;;;;;;4.28;1.42;;;8.60;63.70;;;;;;5467372;26;20007;-71
2024/04/16 09:35:19;;;;;;;3.05;1.27;;;8.50;61.80;;;;;;5486088;26;20017;-70
2024/04/16 09:37:44;;;;;;;1.52;1.15;;;8.60;62.90;;;;;;5489082;26;20003;-71
2024/04/16 09:40:12;;;;;;;1.67;1.40;;;8.40;62.00;;;;;;5489315;26;19995;-71
2024/04/16 09:42:41;;;;;;;5.65;1.20;;;8.40;62.30;;;;;;5489473;26;20006;-71
2024/04/16 09:45:06;;;;;;;1.92;1.50;;;8.40;61.40;;;;;;5488611;26;20021;-71
2024/04/16 09:47:34;;;;;;;4.50;2.45;;;8.60;63.20;;;;;;5489246;26;20065;-71
2024/04/16 09:50:01;;;;;;;1.65;1.55;;;8.60;62.60;;;;;;5464576;26;20042;-71
2024/04/16 09:52:29;;;;;;;1.98;1.80;;;8.50;61.70;;;;;;5457045;26;20002;-72
2024/04/16 09:54:58;;;;;;;2.25;1.10;;;8.40;61.20;;;;;;5454992;26;19994;-71
2024/04/16 09:57:27;;;;;;;2.30;1.63;;;8.50;61.90;;;;;;5489186;26;20448;-71
2024/04/16 09:59:54;;;;;;;1.67;1.55;;;8.50;61.30;;;;;;5488368;26;20018;-70
2024/04/16 10:02:21;;;;;;;1.98;1.52;;;8.50;61.70;;;;;;5488915;26;20355;-71
2024/04/16 10:04:47;;;;;;;1.65;1.40;;;8.50;60.30;;;;;;5455612;26;20026;-72
2024/04/16 10:07:13;;;;;;;2.33;1.38;;;8.60;61.00;;;;;;5488857;26;20438;-71
2024/04/16 10:09:39;;;;;;;1.50;1.40;;;8.70;61.10;;;;;;5487450;26;20074;-71
2024/04/16 10:12:06;;;;;;;1.20;0.98;;;8.80;61.20;;;;;;5488689;26;20077;-71
2024/04/16 10:14:31;;;;;;;2.00;1.30;;;8.90;59.50;;;;;;5488510;26;20010;-71
2024/04/16 10:16:57;;;;;;;2.15;1.20;;;9.10;59.50;;;;;;5456674;26;20021;-71
2024/04/16 10:19:22;;;;;;;2.47;1.17;;;9.00;57.80;;;;;;5475421;26;19994;-69
2024/04/16 10:21:49;;;;;;;2.30;0.77;;;9.10;59.00;;;;;;5483322;26;20020;-71
2024/04/16 10:24:19;;;;;;;1.42;0.88;;;9.20;59.10;;;;;;5479707;26;20373;-71
2024/04/16 10:26:47;;;;;;;2.10;1.08;;;8.90;57.70;;;;;;5483446;26;20010;-70
2024/04/16 10:29:13;;;;;;;2.40;1.08;;;8.80;57.60;;;;;;5481661;26;20002;-71
2024/04/16 10:31:39;;;;;;;1.13;0.90;;;8.60;57.30;;;;;;5473694;26;20006;-71
2024/04/16 10:34:05;;;;;;;3.10;1.50;;;8.50;58.50;;;;;;5485663;26;20223;-71
2024/04/16 10:36:32;;;;;;;1.27;1.17;;;8.30;58.90;;;;;;5452625;26;20002;-70
2024/04/16 10:38:58;;;;;;;2.70;1.05;;;8.30;59.50;;;;;;5480743;26;20431;-72
2024/04/16 10:41:28;;;;;;;1.92;1.20;;;8.50;60.70;;;;;;5484019;26;20096;-71
2024/04/16 10:43:57;;;;;;;3.25;2.67;;;8.50;59.50;;;;;;5487204;26;19998;-70
2024/04/16 10:46:24;;;;;;;3.67;1.90;;;8.50;60.20;;;;;;5504146;26;20319;-71
2024/04/16 10:48:50;;;;;;;1.77;1.48;;;8.60;59.80;;;;;;5472542;26;20521;-72
2024/04/16 10:51:16;;;;;;;2.10;1.48;;;8.80;60.20;;;;;;5468197;26;19994;-71
2024/04/16 10:53:42;;;;;;;3.38;1.60;;;8.90;59.50;;;;;;5474164;26;19994;-72
2024/04/16 10:56:09;;;;;;;2.80;1.50;;;9.00;59.30;;;;;;5470185;26;20002;-70
2024/04/16 10:58:35;;;;;;;2.67;1.38;;;8.90;58.60;;;;;;5484651;26;20431;-72
2024/04/16 11:01:01;;;;;;;5.00;2.15;;;9.00;58.50;;;;;;5476753;26;20013;-71
2024/04/16 11:03:27;;;;;;;1.70;1.60;;;9.20;59.30;;;;;;5472926;26;20074;-70
2024/04/16 11:06:00;;;;;;;4.40;1.40;;;9.40;58.40;;;;;;5480431;26;20018;-70
2024/04/16 11:08:26;;;;;;;2.67;1.23;;;9.60;58.30;;;;;;5469712;26;20331;-71
2024/04/16 11:10:52;;;;;;;2.63;1.40;;;9.70;58.90;;;;;;5474374;26;19995;-71
2024/04/16 11:13:21;;;;;;;4.00;1.45;;;9.80;57.90;;;;;;5487323;26;20002;-70
2024/04/16 11:15:47;;;;;;;4.35;2.17;;;9.90;58.70;;;;;;5468007;26;19999;-71
2024/04/16 11:18:13;;;;;;;8.65;1.90;;;10.10;58.30;;;;;;5476839;26;20012;-71
2024/04/16 11:20:39;;;;;;;4.60;1.48;;;10.10;57.70;;;;;;5484078;26;20074;-70
2024/04/16 11:23:05;;;;;;;2.33;2.13;;;10.00;55.80;;;;;;5475213;26;20010;-72
2024/04/16 11:25:32;;;;;;;3.40;1.42;;;10.10;56.70;;;;;;5466941;26;20078;-72
2024/04/16 11:27:58;;;;;;;3.17;1.70;;;10.10;56.70;;;;;;5471672;26;20002;-72
2024/04/16 11:30:25;;;;;;;3.58;1.52;;;10.10;57.80;;;;;;5485055;26;20022;-71
2024/04/16 11:32:51;;;;;;;3.45;1.55;;;9.90;56.90;;;;;;5487405;26;20021;-72
2024/04/16 11:35:17;;;;;;;1.73;1.55;;;9.90;57.20;;;;;;5468312;26;19998;-72
2024/04/16 11:37:45;;;;;;;3.20;1.80;;;10.20;59.10;;;;;;5480347;26;20025;-72
2024/04/16 11:40:12;;;;;;;3.30;1.83;;;10.10;59.30;;;;;;5486249;26;20435;-70
2024/04/16 11:42:38;;;;;;;2.63;1.92;;;10.00;57.40;;;;;;5475478;26;20002;-71
2024/04/16 11:45:06;;;;;;;3.38;1.95;;;9.80;57.50;;;;;;5472228;26;20013;-72
2024/04/16 11:47:32;;;;;;;3.08;1.63;;;9.70;56.90;;;;;;5486209;26;20083;-70
2024/04/16 11:49:58;;;;;;;4.53;1.77;;;9.70;57.30;;;;;;5487321;26;20509;-71
2024/04/16 11:52:24;;;;;;;2.00;1.88;;;9.90;57.10;;;;;;5457564;26;20031;-71
2024/04/16 11:54:51;;;;;;;3.22;1.60;;;10.00;58.50;;;;;;5468907;26;20014;-73
2024/04/16 11:57:19;;;;;;;2.67;1.60;;;9.70;57.00;;;;;;5460888;26;20021;-71
2024/04/16 11:59:47;;;;;;;1.98;1.38;;;9.80;57.90;;;;;;5472881;26;20334;-72
2024/04/16 12:02:13;;;;;;;1.70;1.30;;;9.70;57.20;;;;;;5477808;26;20006;-71
2024/04/16 12:04:39;;;;;;;4.50;1.80;;;9.80;57.90;;;;;;5480994;26;20009;-72
2024/04/16 12:07:04;;;;;;;1.40;1.17;;;9.70;57.30;;;;;;5483775;26;20002;-73
2024/04/16 12:09:31;;;;;;;4.57;1.95;;;9.90;58.40;;;;;;5473233;26;20039;-72
2024/04/16 12:11:57;;;;;;;2.97;1.40;;;10.00;57.90;;;;;;5490308;26;20020;-71
2024/04/16 12:14:23;;;;;;;2.33;1.50;;;10.00;57.20;;;;;;5492205;26;20332;-70
2024/04/16 12:16:48;;;;;;;3.72;2.00;;;9.80;56.80;;;;;;5477873;26;20027;-70
2024/04/16 12:19:14;;;;;;;4.72;2.03;;;9.70;57.30;;;;;;5465825;26;20002;-71
2024/04/16 12:21:40;;;;;;;4.07;1.80;;;9.60;57.90;;;;;;5490113;26;20002;-69
2024/04/16 12:24:06;;;;;;;4.65;2.33;;;9.80;59.40;;;;;;5487419;26;20013;-70
2024/04/16 12:26:31;;;;;;;6.70;2.13;;;9.70;59.60;;;;;;5471665;26;20017;-71
2024/04/16 12:28:58;;;;;;;4.25;2.33;;;9.80;61.40;;;;;;5486223;26;20025;-71
2024/04/16 12:31:25;;;;;;;4.55;2.03;;;10.00;62.00;;;;;;5489029;26;20062;-71
2024/04/16 12:33:50;;;;;;;3.25;1.95;;;10.10;61.30;;;;;;5486212;26;20471;-71
2024/04/16 12:36:16;;;;;;;1.73;1.63;;;10.20;60.20;;;;;;5484610;26;20073;-71
2024/04/16 12:38:43;;;;;;;3.97;1.50;;;10.20;59.80;;;;;;5473023;26;19998;-70
2024/04/16 12:41:09;;;;;;;2.90;1.50;;;10.20;59.70;;;;;;5487083;26;20435;-70
2024/04/16 12:43:35;;;;;;;5.38;1.88;;;10.20;59.00;;;;;;5460361;26;19995;-72
2024/04/16 12:46:01;;;;;;;2.67;1.63;;;10.30;58.50;;;;;;5470358;26;19998;-71